sensor_id;sensor_type;location;lat;lon;timestamp;pressure;altitude;pressure_sealevel;temperature;humidity
74881;BME280;63427;49.654;6.596;2022-10-17T00:00:11;99969.28;;;16.77;51.25
74881;BME280;63427;49.654;6.596;2022-10-17T00:02:36;99969.26;;;16.75;50.26
74881;BME280;63427;49.654;6.596;2022-10-17T00:05:02;99970.90;;;16.94;49.49
74881;BME280;63427;49.654;6.596;2022-10-17T00:07:26;99968.54;;;16.96;49.72
74881;BME280;63427;49.654;6.596;2022-10-17T00:09:52;99966.48;;;17.02;48.88
74881;BME280;63427;49.654;6.596;2022-10-17T00:12:17;99969.93;;;17.14;49.20
74881;BME280;63427;49.654;6.596;2022-10-17T00:14:42;99970.39;;;16.92;48.94
74881;BME280;63427;49.654;6.596;2022-10-17T00:17:07;99969.08;;;16.83;48.95
74881;BME280;63427;49.654;6.596;2022-10-17T00:19:33;99965.52;;;16.84;48.49
74881;BME280;63427;49.654;6.596;2022-10-17T00:21:58;99967.01;;;17.05;48.35
74881;BME280;63427;49.654;6.596;2022-10-17T00:24:23;99962.45;;;16.76;48.65
74881;BME280;63427;49.654;6.596;2022-10-17T00:26:48;99959.60;;;16.57;48.11
74881;BME280;63427;49.654;6.596;2022-10-17T00:29:14;99963.86;;;17.03;47.91
74881;BME280;63427;49.654;6.596;2022-10-17T00:31:39;99960.32;;;16.90;48.51
74881;BME280;63427;49.654;6.596;2022-10-17T00:34:04;99960.59;;;16.98;48.95
74881;BME280;63427;49.654;6.596;2022-10-17T00:36:30;99963.07;;;16.95;48.39
74881;BME280;63427;49.654;6.596;2022-10-17T00:38:57;99966.47;;;17.02;49.15
74881;BME280;63427;49.654;6.596;2022-10-17T00:41:22;99965.83;;;16.77;48.36
74881;BME280;63427;49.654;6.596;2022-10-17T00:43:53;99968.91;;;17.03;47.88
74881;BME280;63427;49.654;6.596;2022-10-17T00:46:11;99969.27;;;16.92;48.37
74881;BME280;63427;49.654;6.596;2022-10-17T00:48:37;99972.41;;;16.96;48.59
74881;BME280;63427;49.654;6.596;2022-10-17T00:51:02;99968.82;;;16.92;48.74
74881;BME280;63427;49.654;6.596;2022-10-17T00:53:27;99969.23;;;16.46;48.77
74881;BME280;63427;49.654;6.596;2022-10-17T00:55:53;99969.09;;;16.73;48.62
74881;BME280;63427;49.654;6.596;2022-10-17T00:58:19;99974.69;;;16.89;49.08
74881;BME280;63427;49.654;6.596;2022-10-17T01:00:44;99973.51;;;16.85;48.61
74881;BME280;63427;49.654;6.596;2022-10-17T01:03:08;99973.65;;;16.80;49.48
74881;BME280;63427;49.654;6.596;2022-10-17T01:05:34;99976.12;;;16.86;48.56
74881;BME280;63427;49.654;6.596;2022-10-17T01:07:59;99976.69;;;16.70;48.57
74881;BME280;63427;49.654;6.596;2022-10-17T01:10:29;99978.64;;;16.84;48.83
74881;BME280;63427;49.654;6.596;2022-10-17T01:12:59;99977.90;;;16.55;49.02
74881;BME280;63427;49.654;6.596;2022-10-17T01:15:22;99981.61;;;16.88;49.44
74881;BME280;63427;49.654;6.596;2022-10-17T01:17:51;99978.14;;;16.50;48.71
74881;BME280;63427;49.654;6.596;2022-10-17T01:22:34;99984.97;;;16.70;48.74
74881;BME280;63427;49.654;6.596;2022-10-17T01:25:16;99988.67;;;17.02;49.03
74881;BME280;63427;49.654;6.596;2022-10-17T01:27:36;99984.89;;;16.69;48.80
74881;BME280;63427;49.654;6.596;2022-10-17T01:29:56;99987.24;;;16.68;49.04
74881;BME280;63427;49.654;6.596;2022-10-17T01:32:14;99987.87;;;17.03;48.50
74881;BME280;63427;49.654;6.596;2022-10-17T01:34:43;99987.49;;;16.90;48.41
74881;BME280;63427;49.654;6.596;2022-10-17T01:37:05;99988.72;;;17.01;48.65
74881;BME280;63427;49.654;6.596;2022-10-17T01:39:33;99984.55;;;16.86;49.14
74881;BME280;63427;49.654;6.596;2022-10-17T01:41:57;99981.11;;;16.95;48.72
74881;BME280;63427;49.654;6.596;2022-10-17T01:44:20;99986.41;;;16.94;48.24
74881;BME280;63427;49.654;6.596;2022-10-17T01:46:48;99981.67;;;16.52;48.75
74881;BME280;63427;49.654;6.596;2022-10-17T01:49:10;99983.90;;;16.57;48.87
74881;BME280;63427;49.654;6.596;2022-10-17T01:51:37;99983.24;;;16.88;48.59
74881;BME280;63427;49.654;6.596;2022-10-17T01:54:01;99984.30;;;16.74;48.28
74881;BME280;63427;49.654;6.596;2022-10-17T01:56:26;99988.14;;;16.65;48.22
74881;BME280;63427;49.654;6.596;2022-10-17T01:58:52;99986.64;;;16.92;48.05
74881;BME280;63427;49.654;6.596;2022-10-17T02:01:16;99991.99;;;16.55;48.21
74881;BME280;63427;49.654;6.596;2022-10-17T02:03:42;99996.67;;;16.69;48.66
74881;BME280;63427;49.654;6.596;2022-10-17T02:06:05;99995.26;;;16.83;48.39
74881;BME280;63427;49.654;6.596;2022-10-17T02:08:39;99992.76;;;16.58;48.58
74881;BME280;63427;49.654;6.596;2022-10-17T02:11:01;99989.40;;;16.33;49.03
74881;BME280;63427;49.654;6.596;2022-10-17T02:13:30;99989.99;;;16.77;48.98
74881;BME280;63427;49.654;6.596;2022-10-17T02:16:00;99990.40;;;16.62;48.39
74881;BME280;63427;49.654;6.596;2022-10-17T02:18:22;99992.53;;;16.82;48.29
74881;BME280;63427;49.654;6.596;2022-10-17T02:20:46;99996.08;;;16.82;48.31
74881;BME280;63427;49.654;6.596;2022-10-17T02:23:10;99992.30;;;16.77;48.35
74881;BME280;63427;49.654;6.596;2022-10-17T02:25:34;99990.60;;;16.78;48.13
74881;BME280;63427;49.654;6.596;2022-10-17T02:28:01;99990.68;;;16.88;48.16
74881;BME280;63427;49.654;6.596;2022-10-17T02:30:25;99993.29;;;16.68;47.93
74881;BME280;63427;49.654;6.596;2022-10-17T02:32:50;100000.69;;;16.57;47.88
74881;BME280;63427;49.654;6.596;2022-10-17T02:35:12;99997.19;;;16.81;47.90
74881;BME280;63427;49.654;6.596;2022-10-17T02:37:36;99995.76;;;16.50;48.02
74881;BME280;63427;49.654;6.596;2022-10-17T02:40:01;99997.31;;;16.66;48.14
74881;BME280;63427;49.654;6.596;2022-10-17T02:42:26;99998.46;;;16.73;47.70
74881;BME280;63427;49.654;6.596;2022-10-17T02:44:51;99998.48;;;16.69;48.11
74881;BME280;63427;49.654;6.596;2022-10-17T02:47:20;99993.60;;;16.72;47.73
74881;BME280;63427;49.654;6.596;2022-10-17T02:49:46;99996.28;;;16.50;48.72
74881;BME280;63427;49.654;6.596;2022-10-17T02:52:10;99993.15;;;16.60;48.16
74881;BME280;63427;49.654;6.596;2022-10-17T02:54:36;99990.36;;;16.57;48.09
74881;BME280;63427;49.654;6.596;2022-10-17T02:57:01;99997.02;;;16.56;47.82
74881;BME280;63427;49.654;6.596;2022-10-17T02:59:24;99990.91;;;16.43;48.04
74881;BME280;63427;49.654;6.596;2022-10-17T03:01:49;99992.30;;;16.61;48.10
74881;BME280;63427;49.654;6.596;2022-10-17T03:04:14;99991.22;;;16.47;48.33
74881;BME280;63427;49.654;6.596;2022-10-17T03:06:39;99992.39;;;16.20;48.40
74881;BME280;63427;49.654;6.596;2022-10-17T03:09:05;99990.72;;;16.42;48.81
74881;BME280;63427;49.654;6.596;2022-10-17T03:11:29;99993.71;;;16.61;48.63
74881;BME280;63427;49.654;6.596;2022-10-17T03:13:55;99986.50;;;16.45;49.30
74881;BME280;63427;49.654;6.596;2022-10-17T03:16:20;99987.80;;;16.28;49.25
74881;BME280;63427;49.654;6.596;2022-10-17T03:18:45;99990.88;;;16.42;48.91
74881;BME280;63427;49.654;6.596;2022-10-17T03:21:10;99996.29;;;16.37;48.83
74881;BME280;63427;49.654;6.596;2022-10-17T03:23:36;100005.98;;;16.49;49.65
74881;BME280;63427;49.654;6.596;2022-10-17T03:26:02;100008.01;;;16.32;49.88
74881;BME280;63427;49.654;6.596;2022-10-17T03:28:26;100011.15;;;16.21;50.72
74881;BME280;63427;49.654;6.596;2022-10-17T03:30:52;100015.67;;;16.33;50.84
74881;BME280;63427;49.654;6.596;2022-10-17T03:33:17;100018.13;;;16.34;50.58
74881;BME280;63427;49.654;6.596;2022-10-17T03:35:43;100023.50;;;16.53;50.29
74881;BME280;63427;49.654;6.596;2022-10-17T03:38:08;100022.91;;;16.76;49.89
74881;BME280;63427;49.654;6.596;2022-10-17T03:40:33;100025.26;;;16.70;49.62
74881;BME280;63427;49.654;6.596;2022-10-17T03:42:58;100024.98;;;16.85;49.39
74881;BME280;63427;49.654;6.596;2022-10-17T03:45:24;100021.96;;;16.86;49.31
74881;BME280;63427;49.654;6.596;2022-10-17T03:47:49;100020.31;;;16.97;48.72
74881;BME280;63427;49.654;6.596;2022-10-17T03:50:15;100019.48;;;16.77;48.24
74881;BME280;63427;49.654;6.596;2022-10-17T03:52:40;100017.35;;;16.48;47.55
74881;BME280;63427;49.654;6.596;2022-10-17T03:55:05;100020.66;;;16.73;47.25
74881;BME280;63427;49.654;6.596;2022-10-17T03:57:30;100028.03;;;16.64;47.77
74881;BME280;63427;49.654;6.596;2022-10-17T03:59:56;100034.90;;;17.01;47.64
74881;BME280;63427;49.654;6.596;2022-10-17T04:02:21;100033.03;;;16.52;48.16
74881;BME280;63427;49.654;6.596;2022-10-17T04:04:46;100032.01;;;16.83;48.29
74881;BME280;63427;49.654;6.596;2022-10-17T04:07:12;100028.51;;;16.71;47.15
74881;BME280;63427;49.654;6.596;2022-10-17T04:09:37;100027.86;;;16.75;46.89
74881;BME280;63427;49.654;6.596;2022-10-17T04:12:03;100030.56;;;16.33;47.08
74881;BME280;63427;49.654;6.596;2022-10-17T04:14:27;100037.17;;;16.76;46.97
74881;BME280;63427;49.654;6.596;2022-10-17T04:16:53;100039.90;;;16.68;47.13
74881;BME280;63427;49.654;6.596;2022-10-17T04:19:18;100041.69;;;16.54;48.00
74881;BME280;63427;49.654;6.596;2022-10-17T04:21:44;100041.85;;;16.90;47.27
74881;BME280;63427;49.654;6.596;2022-10-17T04:24:10;100040.40;;;16.70;46.94
74881;BME280;63427;49.654;6.596;2022-10-17T04:26:34;100038.84;;;16.59;46.78
74881;BME280;63427;49.654;6.596;2022-10-17T04:28:59;100037.33;;;16.51;46.58
74881;BME280;63427;49.654;6.596;2022-10-17T04:31:25;100048.46;;;16.44;46.67
74881;BME280;63427;49.654;6.596;2022-10-17T04:33:50;100048.37;;;16.30;46.34
74881;BME280;63427;49.654;6.596;2022-10-17T04:36:17;100044.77;;;16.15;46.23
74881;BME280;63427;49.654;6.596;2022-10-17T04:38:41;100040.29;;;16.31;46.48
74881;BME280;63427;49.654;6.596;2022-10-17T04:41:09;100035.01;;;16.24;47.09
74881;BME280;63427;49.654;6.596;2022-10-17T04:43:33;100035.98;;;16.15;47.60
74881;BME280;63427;49.654;6.596;2022-10-17T04:45:57;100032.21;;;16.20;47.71
74881;BME280;63427;49.654;6.596;2022-10-17T04:48:22;100033.71;;;16.40;47.42
74881;BME280;63427;49.654;6.596;2022-10-17T04:50:53;100038.74;;;16.08;47.34
74881;BME280;63427;49.654;6.596;2022-10-17T04:53:13;100043.45;;;16.31;47.37
74881;BME280;63427;49.654;6.596;2022-10-17T04:55:38;100045.39;;;15.90;47.92
74881;BME280;63427;49.654;6.596;2022-10-17T04:58:04;100043.88;;;15.95;48.08
74881;BME280;63427;49.654;6.596;2022-10-17T05:00:29;100044.57;;;15.72;48.64
74881;BME280;63427;49.654;6.596;2022-10-17T05:02:54;100040.16;;;15.95;48.08
74881;BME280;63427;49.654;6.596;2022-10-17T05:05:20;100047.73;;;16.04;47.44
74881;BME280;63427;49.654;6.596;2022-10-17T05:07:45;100052.87;;;15.83;47.33
74881;BME280;63427;49.654;6.596;2022-10-17T05:10:11;100057.99;;;16.04;47.64
74881;BME280;63427;49.654;6.596;2022-10-17T05:12:36;100062.20;;;15.67;48.18
74881;BME280;63427;49.654;6.596;2022-10-17T05:15:02;100061.97;;;15.75;47.70
74881;BME280;63427;49.654;6.596;2022-10-17T05:17:27;100060.88;;;16.06;47.41
74881;BME280;63427;49.654;6.596;2022-10-17T05:19:52;100060.86;;;15.79;48.49
74881;BME280;63427;49.654;6.596;2022-10-17T05:22:18;100064.96;;;15.55;48.63
74881;BME280;63427;49.654;6.596;2022-10-17T05:24:43;100067.78;;;15.84;48.23
74881;BME280;63427;49.654;6.596;2022-10-17T05:27:08;100062.35;;;15.68;48.14
74881;BME280;63427;49.654;6.596;2022-10-17T05:29:34;100061.51;;;15.62;47.25
74881;BME280;63427;49.654;6.596;2022-10-17T05:31:59;100068.59;;;15.75;47.96
74881;BME280;63427;49.654;6.596;2022-10-17T05:34:24;100073.06;;;15.64;48.35
74881;BME280;63427;49.654;6.596;2022-10-17T05:36:49;100067.76;;;15.74;47.67
74881;BME280;63427;49.654;6.596;2022-10-17T05:39:14;100063.08;;;15.43;47.76
74881;BME280;63427;49.654;6.596;2022-10-17T05:41:40;100066.21;;;15.61;48.11
74881;BME280;63427;49.654;6.596;2022-10-17T05:44:05;100060.19;;;15.72;47.80
74881;BME280;63427;49.654;6.596;2022-10-17T05:46:30;100064.17;;;15.62;47.96
74881;BME280;63427;49.654;6.596;2022-10-17T05:48:56;100055.09;;;15.58;48.36
74881;BME280;63427;49.654;6.596;2022-10-17T05:51:21;100060.31;;;15.84;48.95
74881;BME280;63427;49.654;6.596;2022-10-17T05:53:46;100064.56;;;15.49;48.67
74881;BME280;63427;49.654;6.596;2022-10-17T05:56:12;100068.70;;;15.53;47.89
74881;BME280;63427;49.654;6.596;2022-10-17T05:58:39;100071.78;;;15.31;49.06
74881;BME280;63427;49.654;6.596;2022-10-17T06:01:03;100065.68;;;15.65;48.86
74881;BME280;63427;49.654;6.596;2022-10-17T06:03:27;100061.48;;;15.70;48.73
74881;BME280;63427;49.654;6.596;2022-10-17T06:05:53;100062.36;;;15.46;48.75
74881;BME280;63427;49.654;6.596;2022-10-17T06:08:18;100067.98;;;15.67;49.15
74881;BME280;63427;49.654;6.596;2022-10-17T06:10:46;100079.05;;;15.41;49.16
74881;BME280;63427;49.654;6.596;2022-10-17T06:13:09;100084.45;;;15.43;49.11
74881;BME280;63427;49.654;6.596;2022-10-17T06:15:33;100091.67;;;15.68;48.44
74881;BME280;63427;49.654;6.596;2022-10-17T06:17:59;100094.17;;;15.72;48.92
74881;BME280;63427;49.654;6.596;2022-10-17T06:20:24;100102.86;;;15.81;50.43
74881;BME280;63427;49.654;6.596;2022-10-17T06:22:49;100102.26;;;15.89;49.66
74881;BME280;63427;49.654;6.596;2022-10-17T06:25:15;100100.52;;;16.01;49.76
74881;BME280;63427;49.654;6.596;2022-10-17T06:27:40;100101.08;;;15.54;50.02
74881;BME280;63427;49.654;6.596;2022-10-17T06:30:06;100106.57;;;15.91;49.78
74881;BME280;63427;49.654;6.596;2022-10-17T06:32:30;100116.75;;;16.23;49.45
74881;BME280;63427;49.654;6.596;2022-10-17T06:34:56;100119.68;;;16.01;49.12
74881;BME280;63427;49.654;6.596;2022-10-17T06:37:21;100127.13;;;15.77;49.66
74881;BME280;63427;49.654;6.596;2022-10-17T06:39:46;100126.21;;;15.84;49.96
74881;BME280;63427;49.654;6.596;2022-10-17T06:42:11;100128.26;;;16.26;49.83
74881;BME280;63427;49.654;6.596;2022-10-17T06:44:37;100136.44;;;16.03;49.90
74881;BME280;63427;49.654;6.596;2022-10-17T06:47:02;100139.77;;;16.00;50.75
74881;BME280;63427;49.654;6.596;2022-10-17T06:49:28;100141.30;;;16.14;50.95
74881;BME280;63427;49.654;6.596;2022-10-17T06:51:53;100135.38;;;16.43;50.27
74881;BME280;63427;49.654;6.596;2022-10-17T06:54:18;100144.06;;;16.58;50.53
74881;BME280;63427;49.654;6.596;2022-10-17T06:56:44;100146.37;;;16.55;51.13
74881;BME280;63427;49.654;6.596;2022-10-17T06:59:09;100145.93;;;16.68;51.12
74881;BME280;63427;49.654;6.596;2022-10-17T07:01:34;100142.74;;;16.74;51.22
74881;BME280;63427;49.654;6.596;2022-10-17T07:03:59;100141.61;;;16.57;51.44
74881;BME280;63427;49.654;6.596;2022-10-17T07:06:25;100140.32;;;17.01;50.69
74881;BME280;63427;49.654;6.596;2022-10-17T07:08:50;100141.41;;;16.71;50.76
74881;BME280;63427;49.654;6.596;2022-10-17T07:11:17;100144.97;;;16.83;50.72
74881;BME280;63427;49.654;6.596;2022-10-17T07:13:42;100147.26;;;17.13;50.40
74881;BME280;63427;49.654;6.596;2022-10-17T07:16:06;100151.81;;;17.28;50.21
74881;BME280;63427;49.654;6.596;2022-10-17T07:18:31;100152.24;;;17.32;50.29
74881;BME280;63427;49.654;6.596;2022-10-17T07:20:57;100159.25;;;17.28;49.96
74881;BME280;63427;49.654;6.596;2022-10-17T07:23:22;100160.75;;;17.28;50.10
74881;BME280;63427;49.654;6.596;2022-10-17T07:25:47;100165.58;;;17.51;50.00
74881;BME280;63427;49.654;6.596;2022-10-17T07:28:13;100160.29;;;18.02;49.85
74881;BME280;63427;49.654;6.596;2022-10-17T07:30:38;100173.57;;;18.10;49.72
74881;BME280;63427;49.654;6.596;2022-10-17T07:33:03;100182.88;;;18.18;49.15
74881;BME280;63427;49.654;6.596;2022-10-17T07:35:28;100191.67;;;18.64;48.98
74881;BME280;63427;49.654;6.596;2022-10-17T07:37:54;100202.34;;;18.43;49.06
74881;BME280;63427;49.654;6.596;2022-10-17T07:40:19;100209.13;;;18.53;49.12
74881;BME280;63427;49.654;6.596;2022-10-17T07:42:46;100202.36;;;18.45;48.25
74881;BME280;63427;49.654;6.596;2022-10-17T07:45:11;100203.73;;;18.83;48.93
74881;BME280;63427;49.654;6.596;2022-10-17T07:47:36;100195.60;;;18.86;48.14
74881;BME280;63427;49.654;6.596;2022-10-17T07:50:02;100195.57;;;19.14;48.01
74881;BME280;63427;49.654;6.596;2022-10-17T07:52:27;100197.19;;;18.94;48.16
74881;BME280;63427;49.654;6.596;2022-10-17T07:54:52;100197.94;;;18.44;48.03
74881;BME280;63427;49.654;6.596;2022-10-17T07:57:18;100198.13;;;19.20;47.04
74881;BME280;63427;49.654;6.596;2022-10-17T07:59:43;100193.79;;;19.45;46.98
74881;BME280;63427;49.654;6.596;2022-10-17T08:02:16;100185.40;;;19.53;46.71
74881;BME280;63427;49.654;6.596;2022-10-17T08:04:33;100183.02;;;19.61;45.78
74881;BME280;63427;49.654;6.596;2022-10-17T08:06:59;100180.46;;;19.76;46.28
74881;BME280;63427;49.654;6.596;2022-10-17T08:09:24;100189.42;;;19.97;45.69
74881;BME280;63427;49.654;6.596;2022-10-17T08:11:49;100192.94;;;20.17;45.25
74881;BME280;63427;49.654;6.596;2022-10-17T08:14:15;100197.79;;;20.49;44.44
74881;BME280;63427;49.654;6.596;2022-10-17T08:16:40;100202.49;;;20.13;44.06
74881;BME280;63427;49.654;6.596;2022-10-17T08:19:05;100204.09;;;20.52;44.06
74881;BME280;63427;49.654;6.596;2022-10-17T08:21:30;100218.05;;;20.57;43.99
74881;BME280;63427;49.654;6.596;2022-10-17T08:23:55;100214.00;;;20.88;43.20
74881;BME280;63427;49.654;6.596;2022-10-17T08:26:21;100212.48;;;21.42;43.54
74881;BME280;63427;49.654;6.596;2022-10-17T08:28:46;100208.51;;;21.29;42.09
74881;BME280;63427;49.654;6.596;2022-10-17T08:31:12;100208.17;;;21.63;41.92
74881;BME280;63427;49.654;6.596;2022-10-17T08:33:36;100214.05;;;21.53;41.35
74881;BME280;63427;49.654;6.596;2022-10-17T08:36:03;100208.37;;;21.80;40.96
74881;BME280;63427;49.654;6.596;2022-10-17T08:38:28;100212.91;;;21.77;40.63
74881;BME280;63427;49.654;6.596;2022-10-17T08:40:52;100215.34;;;21.73;40.94
74881;BME280;63427;49.654;6.596;2022-10-17T08:43:27;100222.11;;;21.54;40.32
74881;BME280;63427;49.654;6.596;2022-10-17T08:45:46;100228.66;;;21.68;39.27
74881;BME280;63427;49.654;6.596;2022-10-17T08:48:10;100234.23;;;21.34;40.67
74881;BME280;63427;49.654;6.596;2022-10-17T08:50:36;100235.41;;;22.12;40.77
74881;BME280;63427;49.654;6.596;2022-10-17T08:53:02;100241.27;;;22.11;39.23
74881;BME280;63427;49.654;6.596;2022-10-17T08:55:30;100231.83;;;22.09;39.89
74881;BME280;63427;49.654;6.596;2022-10-17T08:57:47;100237.53;;;22.61;38.50
74881;BME280;63427;49.654;6.596;2022-10-17T09:00:16;100238.97;;;21.72;39.50
74881;BME280;63427;49.654;6.596;2022-10-17T09:02:47;100230.96;;;22.52;39.21
74881;BME280;63427;49.654;6.596;2022-10-17T09:07:34;100239.73;;;22.57;38.57
74881;BME280;63427;49.654;6.596;2022-10-17T09:10:01;100245.81;;;23.26;37.52
74881;BME280;63427;49.654;6.596;2022-10-17T09:12:21;100240.46;;;23.33;36.80
74881;BME280;63427;49.654;6.596;2022-10-17T09:15:00;100243.11;;;23.69;35.76
74881;BME280;63427;49.654;6.596;2022-10-17T09:17:17;100241.68;;;23.95;35.53
74881;BME280;63427;49.654;6.596;2022-10-17T09:19:35;100243.42;;;24.04;34.83
74881;BME280;63427;49.654;6.596;2022-10-17T09:22:02;100250.83;;;22.94;36.93
74881;BME280;63427;49.654;6.596;2022-10-17T09:24:29;100256.04;;;24.09;34.85
74881;BME280;63427;49.654;6.596;2022-10-17T09:26:50;100256.35;;;24.55;34.10
74881;BME280;63427;49.654;6.596;2022-10-17T09:29:20;100264.88;;;24.75;33.92
74881;BME280;63427;49.654;6.596;2022-10-17T09:31:46;100264.85;;;24.45;34.20
74881;BME280;63427;49.654;6.596;2022-10-17T09:34:09;100278.12;;;25.35;33.98
74881;BME280;63427;49.654;6.596;2022-10-17T09:36:33;100282.27;;;25.57;33.22
74881;BME280;63427;49.654;6.596;2022-10-17T09:39:00;100283.29;;;24.80;33.89
74881;BME280;63427;49.654;6.596;2022-10-17T09:41:29;100290.19;;;25.19;32.79
74881;BME280;63427;49.654;6.596;2022-10-17T09:43:51;100288.97;;;25.70;32.41
74881;BME280;63427;49.654;6.596;2022-10-17T09:46:21;100289.97;;;25.52;32.52
74881;BME280;63427;49.654;6.596;2022-10-17T09:48:44;100289.29;;;26.27;32.18
74881;BME280;63427;49.654;6.596;2022-10-17T09:51:08;100291.21;;;26.06;31.07
74881;BME280;63427;49.654;6.596;2022-10-17T09:53:36;100294.06;;;26.66;31.84
74881;BME280;63427;49.654;6.596;2022-10-17T09:56:01;100296.69;;;27.06;30.84
74881;BME280;63427;49.654;6.596;2022-10-17T09:58:39;100301.75;;;27.41;30.61
74881;BME280;63427;49.654;6.596;2022-10-17T10:00:50;100309.15;;;26.97;30.25
74881;BME280;63427;49.654;6.596;2022-10-17T10:03:18;100306.30;;;24.30;32.02
74881;BME280;63427;49.654;6.596;2022-10-17T10:05:42;100310.20;;;26.35;31.38
74881;BME280;63427;49.654;6.596;2022-10-17T10:08:13;100315.50;;;25.72;31.28
74881;BME280;63427;49.654;6.596;2022-10-17T10:10:32;100321.19;;;26.72;30.63
74881;BME280;63427;49.654;6.596;2022-10-17T10:13:31;100326.86;;;26.97;31.13
74881;BME280;63427;49.654;6.596;2022-10-17T10:15:33;100319.61;;;26.82;30.69
74881;BME280;63427;49.654;6.596;2022-10-17T10:17:50;100321.66;;;27.58;30.79
74881;BME280;63427;49.654;6.596;2022-10-17T10:20:27;100322.90;;;26.70;30.72
74881;BME280;63427;49.654;6.596;2022-10-17T10:22:41;100321.27;;;27.19;30.14
74881;BME280;63427;49.654;6.596;2022-10-17T10:25:12;100322.96;;;27.30;29.57
74881;BME280;63427;49.654;6.596;2022-10-17T10:27:33;100325.79;;;26.46;30.73
74881;BME280;63427;49.654;6.596;2022-10-17T10:30:00;100314.74;;;27.26;30.52
74881;BME280;63427;49.654;6.596;2022-10-17T10:32:26;100317.81;;;26.36;31.02
74881;BME280;63427;49.654;6.596;2022-10-17T10:34:52;100331.95;;;26.72;30.56
74881;BME280;63427;49.654;6.596;2022-10-17T10:37:18;100335.62;;;26.23;31.68
74881;BME280;63427;49.654;6.596;2022-10-17T10:39:46;100338.57;;;27.00;30.61
74881;BME280;63427;49.654;6.596;2022-10-17T10:42:21;100340.71;;;28.13;30.32
74881;BME280;63427;49.654;6.596;2022-10-17T10:44:33;100337.77;;;28.65;29.20
74881;BME280;63427;49.654;6.596;2022-10-17T10:47:15;100338.40;;;29.21;28.04
74881;BME280;63427;49.654;6.596;2022-10-17T10:49:29;100341.09;;;27.80;29.64
74881;BME280;63427;49.654;6.596;2022-10-17T10:51:51;100328.65;;;28.58;28.36
74881;BME280;63427;49.654;6.596;2022-10-17T10:54:20;100339.78;;;28.61;28.25
74881;BME280;63427;49.654;6.596;2022-10-17T10:56:44;100343.60;;;28.97;28.05
74881;BME280;63427;49.654;6.596;2022-10-17T10:59:11;100339.68;;;29.67;26.97
74881;BME280;63427;49.654;6.596;2022-10-17T11:01:37;100342.08;;;30.27;26.30
74881;BME280;63427;49.654;6.596;2022-10-17T11:04:09;100341.03;;;29.64;26.69
74881;BME280;63427;49.654;6.596;2022-10-17T11:06:35;100348.80;;;29.52;26.66
74881;BME280;63427;49.654;6.596;2022-10-17T11:08:54;100358.17;;;29.40;26.34
74881;BME280;63427;49.654;6.596;2022-10-17T11:11:22;100355.06;;;30.19;27.29
74881;BME280;63427;49.654;6.596;2022-10-17T11:13:46;100356.07;;;28.92;26.42
74881;BME280;63427;49.654;6.596;2022-10-17T11:16:17;100355.07;;;29.58;26.42
74881;BME280;63427;49.654;6.596;2022-10-17T11:18:37;100358.23;;;27.43;28.84
74881;BME280;63427;49.654;6.596;2022-10-17T11:21:02;100357.93;;;29.67;26.84
74881;BME280;63427;49.654;6.596;2022-10-17T11:23:29;100353.96;;;29.99;26.59
74881;BME280;63427;49.654;6.596;2022-10-17T11:25:50;100353.77;;;30.51;25.76
74881;BME280;63427;49.654;6.596;2022-10-17T11:28:17;100356.10;;;29.11;26.09
74881;BME280;63427;49.654;6.596;2022-10-17T11:30:45;100354.42;;;30.75;26.52
74881;BME280;63427;49.654;6.596;2022-10-17T11:33:08;100355.21;;;31.15;24.95
74881;BME280;63427;49.654;6.596;2022-10-17T11:35:35;100355.05;;;30.94;24.55
74881;BME280;63427;49.654;6.596;2022-10-17T11:38:05;100355.78;;;31.44;25.15
74881;BME280;63427;49.654;6.596;2022-10-17T11:40:32;100352.61;;;31.26;24.41
74881;BME280;63427;49.654;6.596;2022-10-17T11:42:53;100351.33;;;31.11;25.05
74881;BME280;63427;49.654;6.596;2022-10-17T11:45:17;100354.62;;;31.39;24.92
74881;BME280;63427;49.654;6.596;2022-10-17T11:47:45;100354.14;;;31.62;24.41
74881;BME280;63427;49.654;6.596;2022-10-17T11:50:15;100353.92;;;30.42;24.18
74881;BME280;63427;49.654;6.596;2022-10-17T11:52:37;100351.14;;;32.36;24.20
74881;BME280;63427;49.654;6.596;2022-10-17T11:55:09;100354.55;;;31.61;23.85
74881;BME280;63427;49.654;6.596;2022-10-17T11:57:37;100352.78;;;31.82;24.70
74881;BME280;63427;49.654;6.596;2022-10-17T11:59:57;100354.87;;;31.60;23.67
74881;BME280;63427;49.654;6.596;2022-10-17T12:02:19;100354.09;;;32.78;23.33
74881;BME280;63427;49.654;6.596;2022-10-17T12:04:46;100358.50;;;32.82;23.44
74881;BME280;63427;49.654;6.596;2022-10-17T12:07:10;100364.59;;;32.36;22.90
74881;BME280;63427;49.654;6.596;2022-10-17T12:09:37;100362.57;;;32.68;22.48
74881;BME280;63427;49.654;6.596;2022-10-17T12:11:57;100357.68;;;32.92;23.34
74881;BME280;63427;49.654;6.596;2022-10-17T12:14:37;100360.90;;;32.60;22.58
74881;BME280;63427;49.654;6.596;2022-10-17T12:16:47;100359.48;;;33.03;21.97
74881;BME280;63427;49.654;6.596;2022-10-17T12:19:22;100357.10;;;33.40;21.64
74881;BME280;63427;49.654;6.596;2022-10-17T12:21:52;100359.10;;;33.11;21.32
74881;BME280;63427;49.654;6.596;2022-10-17T12:24:03;100362.36;;;33.59;21.69
74881;BME280;63427;49.654;6.596;2022-10-17T12:26:29;100363.75;;;33.06;21.50
74881;BME280;63427;49.654;6.596;2022-10-17T12:28:55;100363.72;;;32.38;22.66
74881;BME280;63427;49.654;6.596;2022-10-17T12:31:22;100368.70;;;32.39;22.46
74881;BME280;63427;49.654;6.596;2022-10-17T12:33:48;100364.14;;;31.97;23.02
74881;BME280;63427;49.654;6.596;2022-10-17T12:38:37;100369.04;;;31.52;23.69
74881;BME280;63427;49.654;6.596;2022-10-17T12:41:04;100364.65;;;30.89;23.44
74881;BME280;63427;49.654;6.596;2022-10-17T12:45:55;100369.46;;;30.30;24.67
74881;BME280;63427;49.654;6.596;2022-10-17T12:51:00;100371.06;;;29.40;25.40
74881;BME280;63427;49.654;6.596;2022-10-17T12:53:15;100367.68;;;29.29;26.24